sensor_id;sensor_type;location;lat;lon;timestamp;temperature;humidity
67942;SHT31;54731;42.600;23.476;2023-12-07T00:01:12;4.03;87.29
67942;SHT31;54731;42.600;23.476;2023-12-07T00:03:37;4.06;87.20
67942;SHT31;54731;42.600;23.476;2023-12-07T00:06:03;4.09;87.16
67942;SHT31;54731;42.600;23.476;2023-12-07T00:08:28;4.09;87.09
67942;SHT31;54731;42.600;23.476;2023-12-07T00:10:54;4.06;87.04
67942;SHT31;54731;42.600;23.476;2023-12-07T00:13:19;4.11;87.07
67942;SHT31;54731;42.600;23.476;2023-12-07T00:15:44;4.13;87.01
67942;SHT31;54731;42.600;23.476;2023-12-07T00:18:09;4.11;87.08
67942;SHT31;54731;42.600;23.476;2023-12-07T00:20:35;4.10;87.15
67942;SHT31;54731;42.600;23.476;2023-12-07T00:23:00;4.11;87.09
67942;SHT31;54731;42.600;23.476;2023-12-07T00:25:25;4.10;87.07
67942;SHT31;54731;42.600;23.476;2023-12-07T00:27:51;4.10;87.09
67942;SHT31;54731;42.600;23.476;2023-12-07T00:30:16;4.10;87.07
67942;SHT31;54731;42.600;23.476;2023-12-07T00:32:41;4.10;87.04
67942;SHT31;54731;42.600;23.476;2023-12-07T00:35:07;4.10;86.95
67942;SHT31;54731;42.600;23.476;2023-12-07T00:37:32;4.13;86.95
67942;SHT31;54731;42.600;23.476;2023-12-07T00:39:58;4.11;86.87
67942;SHT31;54731;42.600;23.476;2023-12-07T00:42:23;4.10;86.86
67942;SHT31;54731;42.600;23.476;2023-12-07T00:44:48;4.16;86.83
67942;SHT31;54731;42.600;23.476;2023-12-07T00:47:14;4.14;86.90
67942;SHT31;54731;42.600;23.476;2023-12-07T00:49:39;4.14;86.93
67942;SHT31;54731;42.600;23.476;2023-12-07T00:52:04;4.16;86.92
67942;SHT31;54731;42.600;23.476;2023-12-07T00:54:30;4.17;87.04
67942;SHT31;54731;42.600;23.476;2023-12-07T00:56:55;4.19;87.04
67942;SHT31;54731;42.600;23.476;2023-12-07T00:59:20;4.14;87.11
67942;SHT31;54731;42.600;23.476;2023-12-07T01:01:46;4.10;87.22
67942;SHT31;54731;42.600;23.476;2023-12-07T01:04:11;4.10;87.22
67942;SHT31;54731;42.600;23.476;2023-12-07T01:06:36;4.09;87.19
67942;SHT31;54731;42.600;23.476;2023-12-07T01:09:01;4.13;87.05
67942;SHT31;54731;42.600;23.476;2023-12-07T01:11:27;4.06;87.26
67942;SHT31;54731;42.600;23.476;2023-12-07T01:13:52;4.14;87.34
67942;SHT31;54731;42.600;23.476;2023-12-07T01:16:17;4.20;87.22
67942;SHT31;54731;42.600;23.476;2023-12-07T01:18:43;4.17;87.27
67942;SHT31;54731;42.600;23.476;2023-12-07T01:21:08;4.13;87.45
67942;SHT31;54731;42.600;23.476;2023-12-07T01:23:33;4.10;87.69
67942;SHT31;54731;42.600;23.476;2023-12-07T01:25:58;4.07;87.77
67942;SHT31;54731;42.600;23.476;2023-12-07T01:28:24;4.07;87.72
67942;SHT31;54731;42.600;23.476;2023-12-07T01:30:49;4.09;87.82
67942;SHT31;54731;42.600;23.476;2023-12-07T01:33:14;4.17;87.71
67942;SHT31;54731;42.600;23.476;2023-12-07T01:35:40;4.13;87.72
67942;SHT31;54731;42.600;23.476;2023-12-07T01:38:05;4.13;87.72
67942;SHT31;54731;42.600;23.476;2023-12-07T01:40:30;4.06;87.78
67942;SHT31;54731;42.600;23.476;2023-12-07T01:42:55;4.03;88.14
67942;SHT31;54731;42.600;23.476;2023-12-07T01:45:21;4.11;87.97
67942;SHT31;54731;42.600;23.476;2023-12-07T01:47:47;4.13;87.75
67942;SHT31;54731;42.600;23.476;2023-12-07T01:50:14;4.10;87.82
67942;SHT31;54731;42.600;23.476;2023-12-07T01:52:43;4.11;87.75
67942;SHT31;54731;42.600;23.476;2023-12-07T01:55:09;4.11;87.67
67942;SHT31;54731;42.600;23.476;2023-12-07T01:57:36;4.06;87.72
67942;SHT31;54731;42.600;23.476;2023-12-07T02:00:02;4.06;87.65
67942;SHT31;54731;42.600;23.476;2023-12-07T02:02:27;4.07;87.52
67942;SHT31;54731;42.600;23.476;2023-12-07T02:04:52;4.06;87.53
67942;SHT31;54731;42.600;23.476;2023-12-07T02:07:18;4.06;87.48
67942;SHT31;54731;42.600;23.476;2023-12-07T02:09:44;4.09;87.49
67942;SHT31;54731;42.600;23.476;2023-12-07T02:12:09;4.10;87.43
67942;SHT31;54731;42.600;23.476;2023-12-07T02:14:35;4.02;87.71
67942;SHT31;54731;42.600;23.476;2023-12-07T02:17:21;4.05;87.68
67942;SHT31;54731;42.600;23.476;2023-12-07T02:22:29;4.05;87.78
67942;SHT31;54731;42.600;23.476;2023-12-07T02:25:05;4.06;87.78
67942;SHT31;54731;42.600;23.476;2023-12-07T02:30:04;4.02;87.86
67942;SHT31;54731;42.600;23.476;2023-12-07T02:32:29;4.05;87.77
67942;SHT31;54731;42.600;23.476;2023-12-07T02:34:55;4.06;87.78
67942;SHT31;54731;42.600;23.476;2023-12-07T02:37:21;4.06;87.69
67942;SHT31;54731;42.600;23.476;2023-12-07T02:39:48;4.06;87.69
67942;SHT31;54731;42.600;23.476;2023-12-07T02:42:14;4.09;87.68
67942;SHT31;54731;42.600;23.476;2023-12-07T02:44:40;4.09;87.73
67942;SHT31;54731;42.600;23.476;2023-12-07T02:47:05;4.11;87.74
67942;SHT31;54731;42.600;23.476;2023-12-07T02:49:31;4.11;87.74
67942;SHT31;54731;42.600;23.476;2023-12-07T02:51:56;4.16;87.69
67942;SHT31;54731;42.600;23.476;2023-12-07T02:54:21;4.14;87.79
67942;SHT31;54731;42.600;23.476;2023-12-07T02:56:48;4.14;87.82
67942;SHT31;54731;42.600;23.476;2023-12-07T02:59:13;4.16;87.76
67942;SHT31;54731;42.600;23.476;2023-12-07T03:01:39;4.16;87.77
67942;SHT31;54731;42.600;23.476;2023-12-07T03:04:04;4.17;87.79
67942;SHT31;54731;42.600;23.476;2023-12-07T03:06:29;4.17;87.83
67942;SHT31;54731;42.600;23.476;2023-12-07T03:08:54;4.19;87.78
67942;SHT31;54731;42.600;23.476;2023-12-07T03:11:21;4.14;87.79
67942;SHT31;54731;42.600;23.476;2023-12-07T03:13:46;4.14;87.79
67942;SHT31;54731;42.600;23.476;2023-12-07T03:16:11;4.14;87.81
67942;SHT31;54731;42.600;23.476;2023-12-07T03:18:37;4.19;87.77
67942;SHT31;54731;42.600;23.476;2023-12-07T03:21:02;4.19;87.79
67942;SHT31;54731;42.600;23.476;2023-12-07T03:23:27;4.21;87.75
67942;SHT31;54731;42.600;23.476;2023-12-07T03:25:53;4.17;87.85
67942;SHT31;54731;42.600;23.476;2023-12-07T03:28:18;4.20;87.78
67942;SHT31;54731;42.600;23.476;2023-12-07T03:30:43;4.17;87.89
67942;SHT31;54731;42.600;23.476;2023-12-07T03:33:08;4.11;88.01
67942;SHT31;54731;42.600;23.476;2023-12-07T03:35:34;4.07;88.25
67942;SHT31;54731;42.600;23.476;2023-12-07T03:37:59;4.07;88.26
67942;SHT31;54731;42.600;23.476;2023-12-07T03:40:24;4.06;88.30
67942;SHT31;54731;42.600;23.476;2023-12-07T03:42:50;4.07;88.28
67942;SHT31;54731;42.600;23.476;2023-12-07T03:45:15;4.09;88.26
67942;SHT31;54731;42.600;23.476;2023-12-07T03:47:40;4.11;88.26
67942;SHT31;54731;42.600;23.476;2023-12-07T03:50:06;4.09;88.27
67942;SHT31;54731;42.600;23.476;2023-12-07T03:52:31;4.00;88.52
67942;SHT31;54731;42.600;23.476;2023-12-07T03:54:56;3.97;88.64
67942;SHT31;54731;42.600;23.476;2023-12-07T03:57:22;3.89;88.81
67942;SHT31;54731;42.600;23.476;2023-12-07T03:59:47;3.86;88.95
67942;SHT31;54731;42.600;23.476;2023-12-07T04:02:12;3.92;89.01
67942;SHT31;54731;42.600;23.476;2023-12-07T04:04:37;3.99;88.83
67942;SHT31;54731;42.600;23.476;2023-12-07T04:07:03;4.00;88.71
67942;SHT31;54731;42.600;23.476;2023-12-07T04:09:28;4.00;88.67
67942;SHT31;54731;42.600;23.476;2023-12-07T04:11:53;4.02;88.65
67942;SHT31;54731;42.600;23.476;2023-12-07T04:14:19;4.03;88.64
67942;SHT31;54731;42.600;23.476;2023-12-07T04:16:44;4.06;88.53
67942;SHT31;54731;42.600;23.476;2023-12-07T04:19:09;4.05;88.54
67942;SHT31;54731;42.600;23.476;2023-12-07T04:21:35;4.07;88.45
67942;SHT31;54731;42.600;23.476;2023-12-07T04:24:00;4.09;88.39
67942;SHT31;54731;42.600;23.476;2023-12-07T04:26:25;4.10;88.30
67942;SHT31;54731;42.600;23.476;2023-12-07T04:28:50;4.13;88.29
67942;SHT31;54731;42.600;23.476;2023-12-07T04:31:16;4.09;88.28
67942;SHT31;54731;42.600;23.476;2023-12-07T04:33:41;4.03;88.46
67942;SHT31;54731;42.600;23.476;2023-12-07T04:36:06;4.07;88.48
67942;SHT31;54731;42.600;23.476;2023-12-07T04:38:32;4.10;88.43
67942;SHT31;54731;42.600;23.476;2023-12-07T04:40:57;4.11;88.33
67942;SHT31;54731;42.600;23.476;2023-12-07T04:43:22;4.11;88.27
67942;SHT31;54731;42.600;23.476;2023-12-07T04:45:48;4.11;88.35
67942;SHT31;54731;42.600;23.476;2023-12-07T04:48:13;4.13;88.28
67942;SHT31;54731;42.600;23.476;2023-12-07T04:50:38;4.17;88.20
67942;SHT31;54731;42.600;23.476;2023-12-07T04:53:03;4.16;88.16
67942;SHT31;54731;42.600;23.476;2023-12-07T04:55:29;4.16;88.14
67942;SHT31;54731;42.600;23.476;2023-12-07T04:57:54;4.17;88.16
67942;SHT31;54731;42.600;23.476;2023-12-07T05:00:19;4.17;88.14
67942;SHT31;54731;42.600;23.476;2023-12-07T05:02:45;4.19;88.10
67942;SHT31;54731;42.600;23.476;2023-12-07T05:05:10;4.19;88.06
67942;SHT31;54731;42.600;23.476;2023-12-07T05:07:35;4.24;88.02
67942;SHT31;54731;42.600;23.476;2023-12-07T05:10:00;4.23;87.93
67942;SHT31;54731;42.600;23.476;2023-12-07T05:12:26;4.26;87.90
67942;SHT31;54731;42.600;23.476;2023-12-07T05:14:51;4.27;87.88
67942;SHT31;54731;42.600;23.476;2023-12-07T05:17:16;4.30;87.78
67942;SHT31;54731;42.600;23.476;2023-12-07T05:19:43;4.30;87.77
67942;SHT31;54731;42.600;23.476;2023-12-07T05:22:09;4.26;87.86
67942;SHT31;54731;42.600;23.476;2023-12-07T05:24:35;4.26;87.90
67942;SHT31;54731;42.600;23.476;2023-12-07T05:27:00;4.26;87.82
67942;SHT31;54731;42.600;23.476;2023-12-07T05:29:25;4.27;87.65
67942;SHT31;54731;42.600;23.476;2023-12-07T05:31:51;4.26;87.67
67942;SHT31;54731;42.600;23.476;2023-12-07T05:34:16;4.29;87.50
67942;SHT31;54731;42.600;23.476;2023-12-07T05:36:42;4.33;87.39
67942;SHT31;54731;42.600;23.476;2023-12-07T05:39:07;4.32;87.33
67942;SHT31;54731;42.600;23.476;2023-12-07T05:41:33;4.30;87.32
67942;SHT31;54731;42.600;23.476;2023-12-07T05:43:58;4.30;87.10
67942;SHT31;54731;42.600;23.476;2023-12-07T05:46:23;4.34;86.90
67942;SHT31;54731;42.600;23.476;2023-12-07T05:48:48;4.32;86.91
67942;SHT31;54731;42.600;23.476;2023-12-07T05:51:15;4.32;86.99
67942;SHT31;54731;42.600;23.476;2023-12-07T05:53:41;4.33;87.17
67942;SHT31;54731;42.600;23.476;2023-12-07T05:56:06;4.37;87.13
67942;SHT31;54731;42.600;23.476;2023-12-07T05:58:32;4.41;87.04
67942;SHT31;54731;42.600;23.476;2023-12-07T06:00:58;4.41;86.82
67942;SHT31;54731;42.600;23.476;2023-12-07T06:03:23;4.43;86.94
67942;SHT31;54731;42.600;23.476;2023-12-07T06:05:48;4.43;87.00
67942;SHT31;54731;42.600;23.476;2023-12-07T06:08:13;4.41;87.09
67942;SHT31;54731;42.600;23.476;2023-12-07T06:10:39;4.43;87.19
67942;SHT31;54731;42.600;23.476;2023-12-07T06:13:04;4.46;86.94
67942;SHT31;54731;42.600;23.476;2023-12-07T06:15:30;4.36;87.17
67942;SHT31;54731;42.600;23.476;2023-12-07T06:17:55;4.39;87.25
67942;SHT31;54731;42.600;23.476;2023-12-07T06:20:20;4.32;87.43
67942;SHT31;54731;42.600;23.476;2023-12-07T06:22:46;4.34;87.56
67942;SHT31;54731;42.600;23.476;2023-12-07T06:25:11;4.37;87.53
67942;SHT31;54731;42.600;23.476;2023-12-07T06:27:38;4.39;87.45
67942;SHT31;54731;42.600;23.476;2023-12-07T06:30:04;4.46;87.30
67942;SHT31;54731;42.600;23.476;2023-12-07T06:32:30;4.49;87.23
67942;SHT31;54731;42.600;23.476;2023-12-07T06:34:55;4.50;87.27
67942;SHT31;54731;42.600;23.476;2023-12-07T06:37:20;4.54;87.28
67942;SHT31;54731;42.600;23.476;2023-12-07T06:39:46;4.53;87.14
67942;SHT31;54731;42.600;23.476;2023-12-07T06:42:11;4.56;87.15
67942;SHT31;54731;42.600;23.476;2023-12-07T06:44:36;4.57;87.12
67942;SHT31;54731;42.600;23.476;2023-12-07T06:47:02;4.53;87.14
67942;SHT31;54731;42.600;23.476;2023-12-07T06:49:27;4.57;87.11
67942;SHT31;54731;42.600;23.476;2023-12-07T06:51:52;4.57;87.22
67942;SHT31;54731;42.600;23.476;2023-12-07T06:54:17;4.56;87.49
67942;SHT31;54731;42.600;23.476;2023-12-07T06:56:43;4.58;87.56
67942;SHT31;54731;42.600;23.476;2023-12-07T06:59:08;4.65;87.61
67942;SHT31;54731;42.600;23.476;2023-12-07T07:01:33;4.62;87.73
67942;SHT31;54731;42.600;23.476;2023-12-07T07:03:59;4.51;88.21
67942;SHT31;54731;42.600;23.476;2023-12-07T07:06:24;4.54;88.38
67942;SHT31;54731;42.600;23.476;2023-12-07T07:08:49;4.65;88.28
67942;SHT31;54731;42.600;23.476;2023-12-07T07:11:14;4.71;88.07
67942;SHT31;54731;42.600;23.476;2023-12-07T07:13:40;4.77;88.11
67942;SHT31;54731;42.600;23.476;2023-12-07T07:16:06;4.81;87.92
67942;SHT31;54731;42.600;23.476;2023-12-07T07:18:32;4.84;87.86
67942;SHT31;54731;42.600;23.476;2023-12-07T07:20:57;4.84;87.85
67942;SHT31;54731;42.600;23.476;2023-12-07T07:23:22;4.82;87.82
67942;SHT31;54731;42.600;23.476;2023-12-07T07:25:47;4.84;87.92
67942;SHT31;54731;42.600;23.476;2023-12-07T07:28:13;4.78;87.93
67942;SHT31;54731;42.600;23.476;2023-12-07T07:30:38;4.84;87.93
67942;SHT31;54731;42.600;23.476;2023-12-07T07:33:03;4.91;87.79
67942;SHT31;54731;42.600;23.476;2023-12-07T07:35:29;4.99;87.34
67942;SHT31;54731;42.600;23.476;2023-12-07T07:37:54;4.99;86.49
67942;SHT31;54731;42.600;23.476;2023-12-07T07:40:19;5.08;86.14
67942;SHT31;54731;42.600;23.476;2023-12-07T07:42:45;5.11;85.64
67942;SHT31;54731;42.600;23.476;2023-12-07T07:45:10;5.14;85.62
67942;SHT31;54731;42.600;23.476;2023-12-07T07:47:35;5.09;85.87
67942;SHT31;54731;42.600;23.476;2023-12-07T07:50:01;5.12;86.05
67942;SHT31;54731;42.600;23.476;2023-12-07T07:52:26;5.12;86.19
67942;SHT31;54731;42.600;23.476;2023-12-07T07:54:51;5.18;86.11
67942;SHT31;54731;42.600;23.476;2023-12-07T07:57:16;5.04;86.02
67942;SHT31;54731;42.600;23.476;2023-12-07T07:59:42;5.09;86.35
67942;SHT31;54731;42.600;23.476;2023-12-07T08:02:07;5.14;86.27
67942;SHT31;54731;42.600;23.476;2023-12-07T08:04:32;5.14;86.07
67942;SHT31;54731;42.600;23.476;2023-12-07T08:06:58;5.18;86.00
67942;SHT31;54731;42.600;23.476;2023-12-07T08:09:23;5.05;85.70
67942;SHT31;54731;42.600;23.476;2023-12-07T08:11:48;5.02;85.85
67942;SHT31;54731;42.600;23.476;2023-12-07T08:14:13;5.05;85.91
67942;SHT31;54731;42.600;23.476;2023-12-07T08:16:42;4.98;86.12
67942;SHT31;54731;42.600;23.476;2023-12-07T08:19:08;5.07;86.36
67942;SHT31;54731;42.600;23.476;2023-12-07T08:21:33;5.11;86.19
67942;SHT31;54731;42.600;23.476;2023-12-07T08:23:58;5.12;86.03
67942;SHT31;54731;42.600;23.476;2023-12-07T08:26:24;5.15;85.97
67942;SHT31;54731;42.600;23.476;2023-12-07T08:28:49;5.12;85.69
67942;SHT31;54731;42.600;23.476;2023-12-07T08:31:14;4.96;86.32
67942;SHT31;54731;42.600;23.476;2023-12-07T08:33:40;4.91;86.37
67942;SHT31;54731;42.600;23.476;2023-12-07T08:36:05;4.96;86.54
67942;SHT31;54731;42.600;23.476;2023-12-07T08:38:31;4.88;86.95
67942;SHT31;54731;42.600;23.476;2023-12-07T08:40:57;4.92;87.21
67942;SHT31;54731;42.600;23.476;2023-12-07T08:43:24;4.99;87.24
67942;SHT31;54731;42.600;23.476;2023-12-07T08:45:52;4.94;86.86
67942;SHT31;54731;42.600;23.476;2023-12-07T08:48:19;4.81;87.24
67942;SHT31;54731;42.600;23.476;2023-12-07T08:50:45;4.72;87.19
67942;SHT31;54731;42.600;23.476;2023-12-07T08:53:10;4.72;86.78
67942;SHT31;54731;42.600;23.476;2023-12-07T08:55:35;4.78;86.07
67942;SHT31;54731;42.600;23.476;2023-12-07T08:58:01;4.70;85.87
67942;SHT31;54731;42.600;23.476;2023-12-07T09:00:26;4.70;85.97
67942;SHT31;54731;42.600;23.476;2023-12-07T09:02:52;4.68;86.18
67942;SHT31;54731;42.600;23.476;2023-12-07T09:05:17;4.64;86.19
67942;SHT31;54731;42.600;23.476;2023-12-07T09:07:43;4.54;86.01
67942;SHT31;54731;42.600;23.476;2023-12-07T09:10:09;4.53;86.19
67942;SHT31;54731;42.600;23.476;2023-12-07T09:12:34;4.61;86.29
67942;SHT31;54731;42.600;23.476;2023-12-07T09:14:59;4.60;86.09
67942;SHT31;54731;42.600;23.476;2023-12-07T09:17:25;4.54;86.75
67942;SHT31;54731;42.600;23.476;2023-12-07T09:19:50;4.41;86.75
67942;SHT31;54731;42.600;23.476;2023-12-07T09:22:15;4.41;86.60
67942;SHT31;54731;42.600;23.476;2023-12-07T09:24:41;4.39;86.55
67942;SHT31;54731;42.600;23.476;2023-12-07T09:27:06;4.39;86.14
67942;SHT31;54731;42.600;23.476;2023-12-07T09:29:31;4.34;86.04
67942;SHT31;54731;42.600;23.476;2023-12-07T09:31:56;4.17;86.71
67942;SHT31;54731;42.600;23.476;2023-12-07T09:34:22;4.14;87.04
67942;SHT31;54731;42.600;23.476;2023-12-07T09:36:47;4.16;86.95
67942;SHT31;54731;42.600;23.476;2023-12-07T09:39:12;4.16;86.11
67942;SHT31;54731;42.600;23.476;2023-12-07T09:41:39;4.11;86.15
67942;SHT31;54731;42.600;23.476;2023-12-07T09:44:06;4.11;86.27
67942;SHT31;54731;42.600;23.476;2023-12-07T09:46:31;4.07;86.09
67942;SHT31;54731;42.600;23.476;2023-12-07T09:48:57;4.06;85.44
67942;SHT31;54731;42.600;23.476;2023-12-07T09:51:23;4.02;85.78
67942;SHT31;54731;42.600;23.476;2023-12-07T09:53:51;4.05;85.78
67942;SHT31;54731;42.600;23.476;2023-12-07T09:56:17;4.00;85.68
67942;SHT31;54731;42.600;23.476;2023-12-07T09:58:42;3.93;86.12
67942;SHT31;54731;42.600;23.476;2023-12-07T10:01:08;3.90;86.14
67942;SHT31;54731;42.600;23.476;2023-12-07T10:03:33;3.92;86.14
67942;SHT31;54731;42.600;23.476;2023-12-07T10:05:59;3.89;85.83
67942;SHT31;54731;42.600;23.476;2023-12-07T10:08:32;3.92;85.59
67942;SHT31;54731;42.600;23.476;2023-12-07T10:11:10;3.82;85.62
67942;SHT31;54731;42.600;23.476;2023-12-07T10:13:36;3.79;85.78
67942;SHT31;54731;42.600;23.476;2023-12-07T10:16:20;3.81;85.49
67942;SHT31;54731;42.600;23.476;2023-12-07T10:18:45;3.81;84.87
67942;SHT31;54731;42.600;23.476;2023-12-07T10:21:11;3.74;84.54
67942;SHT31;54731;42.600;23.476;2023-12-07T10:23:37;3.69;84.56
67942;SHT31;54731;42.600;23.476;2023-12-07T10:26:04;3.64;84.74
67942;SHT31;54731;42.600;23.476;2023-12-07T10:28:30;3.48;84.42
67942;SHT31;54731;42.600;23.476;2023-12-07T10:30:56;3.44;84.67
67942;SHT31;54731;42.600;23.476;2023-12-07T10:33:22;3.38;84.67
67942;SHT31;54731;42.600;23.476;2023-12-07T10:35:47;3.36;84.20
67942;SHT31;54731;42.600;23.476;2023-12-07T10:38:12;3.25;84.32
67942;SHT31;54731;42.600;23.476;2023-12-07T10:40:38;3.21;84.54
67942;SHT31;54731;42.600;23.476;2023-12-07T10:43:07;3.28;84.44
67942;SHT31;54731;42.600;23.476;2023-12-07T10:45:33;3.20;84.40
67942;SHT31;54731;42.600;23.476;2023-12-07T10:48:03;3.21;84.43
67942;SHT31;54731;42.600;23.476;2023-12-07T10:50:32;3.15;83.76
67942;SHT31;54731;42.600;23.476;2023-12-07T10:53:05;3.07;83.81
67942;SHT31;54731;42.600;23.476;2023-12-07T10:55:46;2.99;83.65
67942;SHT31;54731;42.600;23.476;2023-12-07T10:58:13;3.01;84.10
67942;SHT31;54731;42.600;23.476;2023-12-07T11:00:42;3.10;84.37
67942;SHT31;54731;42.600;23.476;2023-12-07T11:03:08;3.04;84.41
67942;SHT31;54731;42.600;23.476;2023-12-07T11:05:33;2.97;83.77
67942;SHT31;54731;42.600;23.476;2023-12-07T11:08:05;2.93;83.62
67942;SHT31;54731;42.600;23.476;2023-12-07T11:15:36;2.61;83.88
67942;SHT31;54731;42.600;23.476;2023-12-07T11:18:02;2.53;83.99
67942;SHT31;54731;42.600;23.476;2023-12-07T11:20:42;2.53;84.19
67942;SHT31;54731;42.600;23.476;2023-12-07T11:23:08;2.40;84.32
67942;SHT31;54731;42.600;23.476;2023-12-07T11:25:33;2.39;84.84
67942;SHT31;54731;42.600;23.476;2023-12-07T11:28:03;2.32;84.92
67942;SHT31;54731;42.600;23.476;2023-12-07T11:30:34;2.25;85.11
67942;SHT31;54731;42.600;23.476;2023-12-07T11:33:03;2.22;85.42
67942;SHT31;54731;42.600;23.476;2023-12-07T11:35:28;2.25;85.38
67942;SHT31;54731;42.600;23.476;2023-12-07T11:38:08;2.16;85.60
67942;SHT31;54731;42.600;23.476;2023-12-07T11:40:43;2.16;86.05
67942;SHT31;54731;42.600;23.476;2023-12-07T11:43:17;2.12;86.03
67942;SHT31;54731;42.600;23.476;2023-12-07T11:45:49;2.14;85.88
67942;SHT31;54731;42.600;23.476;2023-12-07T11:48:15;2.14;85.67
67942;SHT31;54731;42.600;23.476;2023-12-07T11:51:04;2.06;85.75
67942;SHT31;54731;42.600;23.476;2023-12-07T11:53:31;2.02;86.15
67942;SHT31;54731;42.600;23.476;2023-12-07T11:55:58;2.06;86.01
67942;SHT31;54731;42.600;23.476;2023-12-07T11:58:28;2.12;85.79
67942;SHT31;54731;42.600;23.476;2023-12-07T12:00:53;2.05;86.03
67942;SHT31;54731;42.600;23.476;2023-12-07T12:03:19;2.02;86.03
67942;SHT31;54731;42.600;23.476;2023-12-07T12:05:44;2.08;86.13
67942;SHT31;54731;42.600;23.476;2023-12-07T12:08:10;2.11;86.09
67942;SHT31;54731;42.600;23.476;2023-12-07T12:10:35;2.12;86.05
67942;SHT31;54731;42.600;23.476;2023-12-07T12:13:02;2.16;85.95
67942;SHT31;54731;42.600;23.476;2023-12-07T12:15:27;2.19;85.89
67942;SHT31;54731;42.600;23.476;2023-12-07T12:17:52;2.14;85.71
67942;SHT31;54731;42.600;23.476;2023-12-07T12:20:18;2.15;85.98
67942;SHT31;54731;42.600;23.476;2023-12-07T12:22:44;2.06;85.73
67942;SHT31;54731;42.600;23.476;2023-12-07T12:25:09;2.04;85.67
67942;SHT31;54731;42.600;23.476;2023-12-07T12:27:35;1.93;85.77
67942;SHT31;54731;42.600;23.476;2023-12-07T12:30:01;1.95;86.03
67942;SHT31;54731;42.600;23.476;2023-12-07T12:32:27;1.99;85.94
67942;SHT31;54731;42.600;23.476;2023-12-07T12:34:52;1.99;86.13
67942;SHT31;54731;42.600;23.476;2023-12-07T12:37:18;2.05;85.93
67942;SHT31;54731;42.600;23.476;2023-12-07T12:39:43;2.06;85.86
67942;SHT31;54731;42.600;23.476;2023-12-07T12:42:08;2.05;85.92
67942;SHT31;54731;42.600;23.476;2023-12-07T12:44:34;2.09;85.85
67942;SHT31;54731;42.600;23.476;2023-12-07T12:47:00;2.11;85.40
67942;SHT31;54731;42.600;23.476;2023-12-07T12:49:35;2.04;85.86
67942;SHT31;54731;42.600;23.476;2023-12-07T12:52:00;2.01;85.75
67942;SHT31;54731;42.600;23.476;2023-12-07T12:54:30;2.06;85.27
67942;SHT31;54731;42.600;23.476;2023-12-07T12:56:56;2.06;85.47
67942;SHT31;54731;42.600;23.476;2023-12-07T12:59:21;2.08;85.57
67942;SHT31;54731;42.600;23.476;2023-12-07T13:01:47;1.97;85.59
67942;SHT31;54731;42.600;23.476;2023-12-07T13:04:12;1.97;85.52
67942;SHT31;54731;42.600;23.476;2023-12-07T13:06:39;1.95;85.57
67942;SHT31;54731;42.600;23.476;2023-12-07T13:09:05;1.98;85.75
67942;SHT31;54731;42.600;23.476;2023-12-07T13:11:30;1.93;85.71
67942;SHT31;54731;42.600;23.476;2023-12-07T13:13:55;1.86;86.09
67942;SHT31;54731;42.600;23.476;2023-12-07T13:16:21;1.81;86.35
67942;SHT31;54731;42.600;23.476;2023-12-07T13:18:46;1.77;86.43
67942;SHT31;54731;42.600;23.476;2023-12-07T13:21:11;1.75;86.30
67942;SHT31;54731;42.600;23.476;2023-12-07T13:23:37;1.74;86.32
67942;SHT31;54731;42.600;23.476;2023-12-07T13:26:02;1.63;86.51
67942;SHT31;54731;42.600;23.476;2023-12-07T13:28:28;1.67;86.75
67942;SHT31;54731;42.600;23.476;2023-12-07T13:30:53;1.60;86.82
67942;SHT31;54731;42.600;23.476;2023-12-07T13:33:18;1.67;86.72
67942;SHT31;54731;42.600;23.476;2023-12-07T13:35:43;1.61;86.64
67942;SHT31;54731;42.600;23.476;2023-12-07T13:38:09;1.53;86.90
67942;SHT31;54731;42.600;23.476;2023-12-07T13:40:34;1.46;87.44
67942;SHT31;54731;42.600;23.476;2023-12-07T13:42:59;1.40;87.48
67942;SHT31;54731;42.600;23.476;2023-12-07T13:45:25;1.39;87.77
67942;SHT31;54731;42.600;23.476;2023-12-07T13:47:51;1.36;87.90
67942;SHT31;54731;42.600;23.476;2023-12-07T13:50:16;1.33;88.01
67942;SHT31;54731;42.600;23.476;2023-12-07T13:52:41;1.29;88.09
67942;SHT31;54731;42.600;23.476;2023-12-07T13:55:07;1.29;87.98
67942;SHT31;54731;42.600;23.476;2023-12-07T13:57:32;1.26;88.34
67942;SHT31;54731;42.600;23.476;2023-12-07T13:59:58;1.17;88.30
67942;SHT31;54731;42.600;23.476;2023-12-07T14:02:23;1.20;88.36
67942;SHT31;54731;42.600;23.476;2023-12-07T14:04:49;1.17;88.43
67942;SHT31;54731;42.600;23.476;2023-12-07T14:07:16;1.16;88.38
67942;SHT31;54731;42.600;23.476;2023-12-07T14:09:44;1.04;88.65
67942;SHT31;54731;42.600;23.476;2023-12-07T14:12:10;1.04;88.76
67942;SHT31;54731;42.600;23.476;2023-12-07T14:14:36;1.04;88.77
67942;SHT31;54731;42.600;23.476;2023-12-07T14:17:01;1.03;88.97
67942;SHT31;54731;42.600;23.476;2023-12-07T14:19:27;1.00;88.98
67942;SHT31;54731;42.600;23.476;2023-12-07T14:21:53;0.99;89.28
67942;SHT31;54731;42.600;23.476;2023-12-07T14:24:19;1.00;89.08
67942;SHT31;54731;42.600;23.476;2023-12-07T14:26:44;0.97;89.05
67942;SHT31;54731;42.600;23.476;2023-12-07T14:29:09;0.96;89.02
67942;SHT31;54731;42.600;23.476;2023-12-07T14:31:35;1.02;88.93
67942;SHT31;54731;42.600;23.476;2023-12-07T14:34:00;0.99;88.91
67942;SHT31;54731;42.600;23.476;2023-12-07T14:36:25;0.89;89.07
67942;SHT31;54731;42.600;23.476;2023-12-07T14:38:51;0.83;89.37
67942;SHT31;54731;42.600;23.476;2023-12-07T14:41:16;0.82;89.48
67942;SHT31;54731;42.600;23.476;2023-12-07T14:43:41;0.89;89.50
67942;SHT31;54731;42.600;23.476;2023-12-07T14:46:06;0.89;89.26
67942;SHT31;54731;42.600;23.476;2023-12-07T14:48:32;0.90;89.34
67942;SHT31;54731;42.600;23.476;2023-12-07T14:50:57;0.90;89.18
67942;SHT31;54731;42.600;23.476;2023-12-07T14:53:22;0.92;89.21
67942;SHT31;54731;42.600;23.476;2023-12-07T14:55:48;0.90;89.13
67942;SHT31;54731;42.600;23.476;2023-12-07T14:58:13;0.95;89.11
67942;SHT31;54731;42.600;23.476;2023-12-07T15:00:38;0.96;89.12
67942;SHT31;54731;42.600;23.476;2023-12-07T15:03:03;0.93;89.11
67942;SHT31;54731;42.600;23.476;2023-12-07T15:05:29;0.95;89.07
67942;SHT31;54731;42.600;23.476;2023-12-07T15:07:54;0.93;89.06
67942;SHT31;54731;42.600;23.476;2023-12-07T15:10:19;0.97;88.99
67942;SHT31;54731;42.600;23.476;2023-12-07T15:12:45;0.90;88.96
67942;SHT31;54731;42.600;23.476;2023-12-07T15:15:10;0.90;89.12
67942;SHT31;54731;42.600;23.476;2023-12-07T15:17:35;0.86;89.29
67942;SHT31;54731;42.600;23.476;2023-12-07T15:20:01;0.86;89.41
67942;SHT31;54731;42.600;23.476;2023-12-07T15:22:26;0.86;89.46
67942;SHT31;54731;42.600;23.476;2023-12-07T15:24:51;0.85;89.43
67942;SHT31;54731;42.600;23.476;2023-12-07T15:27:16;0.90;89.10
67942;SHT31;54731;42.600;23.476;2023-12-07T15:29:42;0.83;89.42
67942;SHT31;54731;42.600;23.476;2023-12-07T15:32:08;0.86;89.27